Time;durP1;ratioP1;P1;durP2;ratioP2;P2;SDS_P1;SDS_P2;PMS_P1;PMS_P2;Temp;Humidity;BMP_temperature;BMP_pressure;BME280_temperature;BME280_humidity;BME280_pressure;Samples;Min_cycle;Max_cycle;Signal;HPM_P1;HPM_P2
2021/12/27 00:01:24;;;;;;;29.63;26.52;;;;;;;6.35;68.39;94486.97;5074930;28;20196;-64
2021/12/27 00:03:52;;;;;;;26.07;22.40;;;;;;;6.39;68.11;94496.94;5074689;28;20637;-64
2021/12/27 00:06:19;;;;;;;26.35;23.60;;;;;;;6.44;68.38;94479.47;5075603;28;20189;-64
2021/12/27 00:08:46;;;;;;;23.65;21.17;;;;;;;6.37;68.17;94495.66;5075857;28;20193;-64
2021/12/27 00:11:14;;;;;;;23.30;20.83;;;;;;;6.37;68.28;94493.72;5074471;28;20240;-64
2021/12/27 00:13:42;;;;;;;19.58;17.50;;;;;;;6.45;67.93;94489.28;5074980;28;20592;-64
2021/12/27 00:16:10;;;;;;;19.30;17.42;;;;;;;6.51;67.54;94496.13;5075140;28;20185;-64
2021/12/27 00:18:38;;;;;;;18.80;16.92;;;;;;;6.57;67.73;94483.78;5075694;28;20189;-64
2021/12/27 00:21:05;;;;;;;18.40;16.60;;;;;;;6.62;67.33;94469.88;5075267;28;20185;-64
2021/12/27 00:23:32;;;;;;;20.08;18.08;;;;;;;6.62;67.70;94469.09;5074626;28;20207;-64
2021/12/27 00:25:59;;;;;;;24.52;22.02;;;;;;;6.50;67.96;94464.41;5075069;28;20248;-64
2021/12/27 00:28:27;;;;;;;23.73;21.13;;;;;;;6.43;67.91;94470.44;5074884;28;20201;-64
2021/12/27 00:30:53;;;;;;;20.35;18.38;;;;;;;6.44;67.81;94474.78;5075099;28;20223;-64
2021/12/27 00:33:22;;;;;;;17.98;16.15;;;;;;;6.50;67.52;94478.91;5075245;28;20196;-64
2021/12/27 00:35:48;;;;;;;17.52;15.88;;;;;;;6.56;67.39;94467.72;5075064;28;20228;-64
2021/12/27 00:38:15;;;;;;;18.60;16.85;;;;;;;6.57;67.68;94472.84;5075534;28;20185;-64
2021/12/27 00:40:42;;;;;;;17.70;15.95;;;;;;;6.57;67.39;94481.06;5074074;28;20193;-64
2021/12/27 00:43:09;;;;;;;18.25;15.88;;;;;;;6.57;67.64;94472.03;5074321;28;20292;-64
2021/12/27 00:45:36;;;;;;;18.77;16.95;;;;;;;6.59;67.37;94473.31;5075598;28;20185;-64
2021/12/27 00:48:04;;;;;;;17.73;16.10;;;;;;;6.58;67.88;94484.63;5076226;28;20196;-64
2021/12/27 00:50:33;;;;;;;19.42;17.40;;;;;;;6.54;67.47;94489.97;5075154;28;20197;-64
2021/12/27 00:53:00;;;;;;;19.35;17.40;;;;;;;6.50;67.36;94480.84;5075205;28;20205;-64
2021/12/27 00:55:27;;;;;;;19.65;17.63;;;;;;;6.52;67.30;94484.03;5074202;28;20540;-64
2021/12/27 00:57:53;;;;;;;19.80;17.73;;;;;;;6.49;67.64;94495.66;5074878;28;20211;-64
2021/12/27 01:00:22;;;;;;;18.00;16.33;;;;;;;6.48;67.78;94489.38;5075152;28;20189;-64
2021/12/27 01:02:50;;;;;;;20.13;18.02;;;;;;;6.51;67.87;94496.94;5075084;28;20185;-64
2021/12/27 01:05:17;;;;;;;18.88;17.17;;;;;;;6.45;67.84;94495.53;5074820;28;20188;-64
2021/12/27 01:07:45;;;;;;;18.58;16.73;;;;;;;6.40;68.23;94479.34;5074867;28;20204;-64
2021/12/27 01:13:06;;;;;;;19.92;17.80;;;;;;;6.47;68.52;94489.75;5071154;28;20231;-64
2021/12/27 01:15:49;;;;;;;19.17;17.38;;;;;;;6.42;68.24;94479.00;5078476;28;20235;-64
2021/12/27 01:18:16;;;;;;;19.63;17.70;;;;;;;6.44;68.02;94474.78;5079010;28;20181;-64
2021/12/27 01:20:43;;;;;;;18.77;17.00;;;;;;;6.47;68.16;94473.31;5079070;28;20196;-64
2021/12/27 01:23:12;;;;;;;18.98;17.10;;;;;;;6.52;68.31;94484.03;5077967;28;20185;-64
2021/12/27 01:25:39;;;;;;;21.10;18.90;;;;;;;6.58;67.89;94488.16;5077685;28;20232;-64
2021/12/27 01:28:07;;;;;;;19.77;17.73;;;;;;;6.63;67.64;94476.97;5078814;28;20188;-64
2021/12/27 01:30:38;;;;;;;20.27;18.38;;;;;;;6.63;67.57;94478.91;5077928;28;20197;-64
2021/12/27 01:33:06;;;;;;;20.08;18.00;;;;;;;6.53;67.55;94463.69;5078359;28;20217;-64
2021/12/27 01:35:34;;;;;;;19.13;17.27;;;;;;;6.51;67.92;94452.31;5077603;28;20247;-64
2021/12/27 01:38:01;;;;;;;20.42;18.42;;;;;;;6.47;68.07;94452.19;5077781;28;20501;-64
2021/12/27 01:40:30;;;;;;;21.23;19.17;;;;;;;6.43;68.24;94466.91;5078692;28;20182;-64
2021/12/27 01:43:06;;;;;;;22.00;19.60;;;;;;;6.49;68.48;94468.28;5077458;28;20205;-64
2021/12/27 01:45:33;;;;;;;21.10;18.85;;;;;;;6.51;68.07;94469.53;5077558;28;20204;-64
2021/12/27 01:48:01;;;;;;;21.52;19.38;;;;;;;6.50;67.74;94461.66;5078157;28;20235;-64
2021/12/27 01:50:27;;;;;;;20.48;18.50;;;;;;;6.48;67.90;94462.00;5077776;28;20200;-64
2021/12/27 01:52:54;;;;;;;19.33;17.38;;;;;;;6.48;68.20;94458.47;5078385;28;20223;-64
2021/12/27 01:55:21;;;;;;;18.73;16.75;;;;;;;6.46;68.46;94458.81;5077429;28;20572;-64
2021/12/27 01:57:50;;;;;;;20.48;18.42;;;;;;;6.45;68.60;94459.13;5078297;28;20196;-64
2021/12/27 02:00:17;;;;;;;19.52;17.55;;;;;;;6.44;68.43;94449.34;5077706;28;20197;-64
2021/12/27 02:02:44;;;;;;;20.17;18.27;;;;;;;6.42;68.56;94451.59;5077897;28;20182;-64
2021/12/27 02:05:12;;;;;;;20.13;18.00;;;;;;;6.46;68.59;94438.81;5076917;28;20201;-64
2021/12/27 02:07:38;;;;;;;20.67;18.58;;;;;;;6.52;68.86;94453.91;5077189;28;20197;-64
2021/12/27 02:10:06;;;;;;;18.73;16.80;;;;;;;6.48;68.89;94451.03;5077153;28;20621;-64
2021/12/27 02:12:34;;;;;;;18.55;16.75;;;;;;;6.49;68.81;94444.41;5076773;28;20653;-64
2021/12/27 02:15:07;;;;;;;19.20;17.20;;;;;;;6.48;69.52;94431.88;5076977;28;20193;-64
2021/12/27 02:17:35;;;;;;;19.45;17.45;;;;;;;6.45;70.17;94439.97;5078112;28;20199;-64
2021/12/27 02:20:05;;;;;;;19.70;17.70;;;;;;;6.40;70.67;94441.00;5077544;28;20188;-64
2021/12/27 02:22:35;;;;;;;19.88;17.95;;;;;;;6.38;70.62;94442.47;5077624;28;20182;-64
2021/12/27 02:25:07;;;;;;;19.08;17.17;;;;;;;6.45;70.16;94435.28;5077380;28;20236;-64
2021/12/27 02:27:35;;;;;;;18.73;16.83;;;;;;;6.45;70.28;94437.22;5076543;28;20266;-64
2021/12/27 02:30:02;;;;;;;18.42;16.55;;;;;;;6.46;70.07;94430.59;5077930;28;20185;-64
2021/12/27 02:32:30;;;;;;;18.33;16.63;;;;;;;6.46;70.16;94450.59;5076783;28;20217;-64
2021/12/27 02:34:57;;;;;;;18.85;16.85;;;;;;;6.46;69.64;94425.13;5077327;28;20225;-64
2021/12/27 02:37:25;;;;;;;19.60;17.20;;;;;;;6.49;70.46;94427.19;5076699;28;20193;-64
2021/12/27 02:39:52;;;;;;;18.80;16.90;;;;;;;6.51;70.78;94433.13;5076574;28;20209;-63
2021/12/27 02:42:19;;;;;;;18.73;16.83;;;;;;;6.49;71.23;94427.19;5076890;28;20185;-63
2021/12/27 02:44:46;;;;;;;18.77;16.98;;;;;;;6.51;70.81;94431.19;5076250;28;20197;-63
2021/12/27 02:47:15;;;;;;;19.27;17.45;;;;;;;6.49;70.13;94432.66;5077339;28;20188;-63
2021/12/27 02:49:42;;;;;;;19.08;17.17;;;;;;;6.52;70.29;94418.28;5077360;28;20185;-63
2021/12/27 02:52:10;;;;;;;18.67;16.80;;;;;;;6.56;70.94;94410.16;5077017;28;20205;-63
2021/12/27 02:54:41;;;;;;;19.40;17.60;;;;;;;6.57;70.72;94418.03;5077341;28;20247;-64
2021/12/27 02:57:09;;;;;;;18.38;16.67;;;;;;;6.60;70.32;94400.91;5076816;28;20268;-64
2021/12/27 02:59:36;;;;;;;18.70;16.98;;;;;;;6.63;70.73;94405.72;5076014;28;20283;-64
2021/12/27 03:02:03;;;;;;;19.45;17.58;;;;;;;6.59;69.71;94418.50;5077246;28;20205;-64
2021/12/27 03:04:35;;;;;;;18.40;16.60;;;;;;;6.62;69.85;94414.28;5076689;28;20181;-64
2021/12/27 03:07:02;;;;;;;18.45;16.65;;;;;;;6.66;70.09;94416.00;5076612;28;20583;-64
2021/12/27 03:09:29;;;;;;;17.83;16.23;;;;;;;6.64;70.00;94417.47;5076877;28;20188;-64
2021/12/27 03:11:57;;;;;;;17.73;16.02;;;;;;;6.63;70.37;94391.22;5076957;28;20209;-64
2021/12/27 03:14:24;;;;;;;18.35;16.65;;;;;;;6.60;70.27;94400.13;5075675;28;20197;-64
2021/12/27 03:16:51;;;;;;;18.73;16.92;;;;;;;6.63;70.44;94411.19;5076907;28;20326;-64
2021/12/27 03:19:17;;;;;;;18.17;16.40;;;;;;;6.68;70.19;94369.88;5076347;28;20204;-64
2021/12/27 03:21:44;;;;;;;18.52;16.83;;;;;;;6.72;69.66;94408.34;5076738;28;20196;-64
2021/12/27 03:24:11;;;;;;;18.52;16.73;;;;;;;6.73;69.15;94385.28;5076413;28;20189;-64
2021/12/27 03:26:38;;;;;;;20.23;18.38;;;;;;;6.74;69.11;94417.81;5076233;28;20240;-64
2021/12/27 03:29:06;;;;;;;18.42;16.58;;;;;;;6.73;69.07;94399.78;5076569;28;20193;-64
2021/12/27 03:31:36;;;;;;;17.73;16.02;;;;;;;6.75;69.21;94405.72;5074796;28;20509;-64
2021/12/27 03:34:03;;;;;;;18.10;15.73;;;;;;;6.79;69.51;94386.63;5076484;28;20197;-64
2021/12/27 03:36:36;;;;;;;17.23;15.55;;;;;;;6.80;69.71;94401.94;5075657;28;20189;-64
2021/12/27 03:39:06;;;;;;;15.88;14.27;;;;;;;6.71;68.83;94399.31;5075351;28;20297;-64
2021/12/27 03:41:33;;;;;;;16.95;15.45;;;;;;;6.78;69.04;94385.03;5076073;28;20183;-64
2021/12/27 03:44:00;;;;;;;18.17;15.88;;;;;;;6.81;68.75;94405.47;5075963;28;20287;-64
2021/12/27 03:46:28;;;;;;;17.50;15.80;;;;;;;6.84;68.76;94360.94;5076232;28;20200;-64
2021/12/27 03:48:55;;;;;;;16.77;15.27;;;;;;;6.88;68.74;94400.22;5076220;28;20189;-64
2021/12/27 03:51:22;;;;;;;16.08;14.50;;;;;;;6.91;68.58;94363.88;5075186;28;20534;-64
2021/12/27 03:53:49;;;;;;;15.90;14.32;;;;;;;6.92;68.63;94387.41;5075712;28;20205;-64
2021/12/27 03:56:16;;;;;;;18.15;16.35;;;;;;;6.90;68.30;94389.69;5075876;28;20203;-64
2021/12/27 03:58:53;;;;;;;18.75;17.05;;;;;;;6.89;68.35;94377.13;5075989;28;20189;-64
2021/12/27 04:01:21;;;;;;;19.13;17.23;;;;;;;6.86;68.79;94372.31;5075891;28;20192;-64
2021/12/27 04:03:51;;;;;;;19.85;17.98;;;;;;;6.86;68.68;94383.28;5076177;28;20197;-64
2021/12/27 04:06:20;;;;;;;19.13;17.27;;;;;;;6.85;68.61;94387.97;5075047;28;20205;-64
2021/12/27 04:08:47;;;;;;;19.65;17.83;;;;;;;6.81;68.91;94375.31;5075808;28;20204;-64
2021/12/27 04:11:14;;;;;;;20.73;18.70;;;;;;;6.77;68.78;94391.66;5075360;28;20189;-64
2021/12/27 04:13:42;;;;;;;18.85;17.00;;;;;;;6.73;69.01;94402.50;5074441;28;20208;-64
2021/12/27 04:16:09;;;;;;;19.00;17.10;;;;;;;6.71;68.85;94382.84;5075684;28;20203;-64
2021/12/27 04:18:36;;;;;;;18.58;16.88;;;;;;;6.68;69.72;94399.19;5075324;28;20199;-64
2021/12/27 04:21:04;;;;;;;18.20;16.48;;;;;;;6.67;69.70;94409.34;5075264;28;20621;-64
2021/12/27 04:23:31;;;;;;;18.73;16.83;;;;;;;6.70;69.15;94394.97;5074900;28;20193;-64
2021/12/27 04:25:58;;;;;;;18.65;16.85;;;;;;;6.75;69.40;94405.72;5074109;28;20319;-64
2021/12/27 04:28:25;;;;;;;18.10;16.20;;;;;;;6.79;69.45;94397.59;5074286;28;20197;-64
2021/12/27 04:30:52;;;;;;;18.27;16.50;;;;;;;6.76;70.07;94403.78;5074624;28;20197;-64
2021/12/27 04:33:19;;;;;;;18.80;17.00;;;;;;;6.69;70.08;94392.59;5074360;28;20217;-64
2021/12/27 04:35:46;;;;;;;18.88;17.08;;;;;;;6.67;69.76;94403.88;5075599;28;20201;-64
2021/12/27 04:38:14;;;;;;;18.92;17.02;;;;;;;6.67;69.90;94390.19;5074613;28;20192;-64
2021/12/27 04:40:43;;;;;;;18.60;16.80;;;;;;;6.66;70.13;94398.75;5075386;28;20181;-64
2021/12/27 04:43:12;;;;;;;19.58;17.67;;;;;;;6.66;69.65;94388.59;5074060;28;20594;-64
2021/12/27 04:45:39;;;;;;;19.55;17.67;;;;;;;6.66;69.99;94405.03;5074958;28;20212;-64
2021/12/27 04:48:07;;;;;;;19.40;17.42;;;;;;;6.67;70.12;94403.09;5074664;28;20601;-64
2021/12/27 04:50:34;;;;;;;19.73;17.65;;;;;;;6.69;69.69;94401.59;5074516;28;20189;-64
2021/12/27 04:53:01;;;;;;;20.30;18.40;;;;;;;6.69;69.55;94396.13;5075229;28;20209;-64
2021/12/27 04:55:30;;;;;;;21.08;18.98;;;;;;;6.66;69.91;94405.03;5074302;28;20204;-64
2021/12/27 04:57:57;;;;;;;21.00;18.95;;;;;;;6.65;70.34;94392.47;5074420;28;20254;-64
2021/12/27 05:00:24;;;;;;;21.45;19.52;;;;;;;6.61;70.71;94401.72;5074382;28;20204;-64
2021/12/27 05:02:51;;;;;;;20.83;18.73;;;;;;;6.59;70.23;94395.78;5074308;28;20197;-64
2021/12/27 05:05:18;;;;;;;20.65;18.70;;;;;;;6.59;70.52;94413.03;5074085;28;20208;-64
2021/12/27 05:07:46;;;;;;;18.73;17.02;;;;;;;6.56;70.66;94412.91;5074490;28;20204;-64
2021/12/27 05:10:16;;;;;;;17.83;16.23;;;;;;;6.51;70.21;94384.59;5074748;28;20272;-64
2021/12/27 05:12:44;;;;;;;19.05;17.25;;;;;;;6.50;70.20;94398.66;5074100;28;20248;-64
2021/12/27 05:15:11;;;;;;;18.60;16.90;;;;;;;6.47;70.13;94411.09;5074678;28;20178;-64
2021/12/27 05:17:38;;;;;;;19.25;17.50;;;;;;;6.51;70.33;94414.75;5074131;28;20203;-64
2021/12/27 05:20:08;;;;;;;18.42;16.67;;;;;;;6.54;70.97;94404.25;5074695;28;20511;-64
2021/12/27 05:22:35;;;;;;;18.13;16.42;;;;;;;6.52;70.23;94404.56;5074976;28;20205;-64
2021/12/27 05:25:03;;;;;;;19.25;17.27;;;;;;;6.52;70.14;94423.75;5073774;28;20236;-64
2021/12/27 05:27:30;;;;;;;18.63;16.90;;;;;;;6.53;70.44;94414.38;5075164;28;20204;-64
2021/12/27 05:29:58;;;;;;;18.83;17.02;;;;;;;6.51;70.64;94395.56;5073715;28;20192;-64
2021/12/27 05:32:25;;;;;;;19.35;17.50;;;;;;;6.51;70.70;94419.44;5075122;28;20196;-64
2021/12/27 05:34:51;;;;;;;19.65;17.85;;;;;;;6.55;70.59;94405.84;5074686;28;20208;-64
2021/12/27 05:37:18;;;;;;;19.95;18.13;;;;;;;6.54;71.01;94404.25;5073957;28;20202;-64
2021/12/27 05:39:45;;;;;;;19.48;17.67;;;;;;;6.49;70.84;94397.03;5074763;28;20185;-64
2021/12/27 05:42:12;;;;;;;20.50;18.70;;;;;;;6.48;70.86;94417.38;5074734;28;20190;-64
2021/12/27 05:44:39;;;;;;;18.38;16.67;;;;;;;6.53;71.05;94424.56;5074390;28;20193;-64
2021/12/27 05:47:07;;;;;;;18.90;17.05;;;;;;;6.54;70.42;94402.31;5074737;28;20181;-64
2021/12/27 05:49:34;;;;;;;18.67;16.85;;;;;;;6.53;70.81;94408.91;5073946;28;20189;-64
2021/12/27 05:52:01;;;;;;;17.05;15.45;;;;;;;6.51;70.53;94414.75;5073870;28;20545;-64
2021/12/27 05:54:28;;;;;;;16.95;15.35;;;;;;;6.56;70.78;94393.72;5076263;28;20211;-64
2021/12/27 05:56:55;;;;;;;17.40;15.68;;;;;;;6.59;70.40;94409.50;5078030;28;20601;-64
2021/12/27 05:59:21;;;;;;;16.23;14.73;;;;;;;6.60;70.48;94383.69;5078690;28;20186;-64
2021/12/27 06:01:48;;;;;;;17.70;15.80;;;;;;;6.63;70.53;94422.16;5077547;28;20295;-64
2021/12/27 06:04:17;;;;;;;16.90;15.13;;;;;;;6.63;70.52;94394.75;5078209;28;20193;-64
2021/12/27 06:06:43;;;;;;;18.88;17.17;;;;;;;6.66;70.56;94409.72;5077982;28;20211;-64
2021/12/27 06:09:10;;;;;;;18.67;16.85;;;;;;;6.69;70.41;94400.81;5077206;28;20212;-64
2021/12/27 06:11:37;;;;;;;19.55;17.55;;;;;;;6.71;69.83;94399.31;5078287;28;20192;-64
2021/12/27 06:14:04;;;;;;;20.13;18.02;;;;;;;6.71;70.14;94384.81;5077909;28;20205;-64
2021/12/27 06:16:31;;;;;;;19.55;17.70;;;;;;;6.72;70.10;94403.66;5077656;28;20193;-64
2021/12/27 06:18:57;;;;;;;17.55;15.85;;;;;;;6.68;69.71;94401.94;5077128;28;20204;-64
2021/12/27 06:21:26;;;;;;;18.13;16.23;;;;;;;6.69;70.00;94389.84;5077835;28;20182;-64
2021/12/27 06:23:53;;;;;;;15.98;14.52;;;;;;;6.65;70.10;94411.66;5077993;28;20189;-64
2021/12/27 06:26:20;;;;;;;15.55;14.02;;;;;;;6.67;70.01;94414.84;5076511;28;20252;-64
2021/12/27 06:28:47;;;;;;;15.18;13.88;;;;;;;6.74;69.78;94389.59;5077599;28;20193;-64
2021/12/27 06:31:13;;;;;;;17.58;15.98;;;;;;;6.76;69.98;94409.25;5077404;28;20611;-64
2021/12/27 06:33:40;;;;;;;15.18;13.68;;;;;;;6.77;69.79;94371.69;5077652;28;20228;-64
2021/12/27 06:36:07;;;;;;;16.02;14.52;;;;;;;6.75;69.97;94392.00;5077358;28;20620;-64
2021/12/27 06:38:36;;;;;;;15.80;14.30;;;;;;;6.71;69.53;94371.91;5076408;28;20291;-64
2021/12/27 06:41:02;;;;;;;14.63;13.23;;;;;;;6.75;69.49;94382.97;5077444;28;20189;-64
2021/12/27 06:43:30;;;;;;;14.43;13.13;;;;;;;6.78;69.48;94373.25;5077316;28;20268;-64
2021/12/27 06:45:57;;;;;;;14.65;13.27;;;;;;;6.80;70.22;94371.00;5076682;28;20197;-64
2021/12/27 06:48:24;;;;;;;14.30;12.90;;;;;;;6.82;70.52;94372.22;5077430;28;20196;-64
2021/12/27 06:50:51;;;;;;;15.10;13.68;;;;;;;6.86;70.25;94372.31;5076447;28;20197;-64
2021/12/27 06:53:18;;;;;;;17.00;15.40;;;;;;;6.89;70.03;94369.69;5076947;28;20233;-64
2021/12/27 06:55:47;;;;;;;18.35;16.55;;;;;;;6.97;69.78;94384.41;5077657;28;20207;-64
2021/12/27 06:58:14;;;;;;;18.50;16.85;;;;;;;6.99;69.63;94382.91;5077256;28;20185;-64
2021/12/27 07:00:41;;;;;;;17.13;15.57;;;;;;;7.04;69.64;94376.38;5076315;28;20263;-64
2021/12/27 07:03:10;;;;;;;15.45;13.85;;;;;;;7.08;68.98;94373.75;5077093;28;20173;-64
2021/12/27 07:05:36;;;;;;;14.45;13.18;;;;;;;7.12;69.08;94361.75;5075703;28;20243;-64
2021/12/27 07:08:03;;;;;;;14.02;12.73;;;;;;;7.18;69.38;94365.03;5076787;28;20593;-64
2021/12/27 07:10:31;;;;;;;14.43;11.57;;;;;;;7.18;69.50;94374.06;5076210;28;20216;-64
2021/12/27 07:12:59;;;;;;;13.35;11.95;;;;;;;7.24;69.38;94360.91;5076836;28;20197;-64
2021/12/27 07:15:26;;;;;;;14.13;12.77;;;;;;;7.31;69.15;94365.81;5076888;28;20186;-64
2021/12/27 07:17:53;;;;;;;15.10;13.55;;;;;;;7.36;69.30;94366.34;5076834;28;20204;-64
2021/12/27 07:20:20;;;;;;;10.93;9.80;;;;;;;7.37;68.89;94356.97;5076227;28;20197;-64
2021/12/27 07:22:47;;;;;;;15.30;13.70;;;;;;;7.33;69.15;94378.00;5075996;28;20209;-64
2021/12/27 07:25:13;;;;;;;17.40;15.73;;;;;;;7.39;68.47;94390.34;5075562;28;20228;-64
2021/12/27 07:27:40;;;;;;;17.42;15.73;;;;;;;7.41;68.74;94377.09;5076795;28;20268;-64
2021/12/27 07:30:11;;;;;;;16.40;14.90;;;;;;;7.46;68.96;94376.81;5076749;28;20189;-64
2021/12/27 07:32:38;;;;;;;15.98;14.48;;;;;;;7.48;68.93;94388.25;5076285;28;20208;-64
2021/12/27 07:35:06;;;;;;;14.77;13.38;;;;;;;7.52;68.55;94385.59;5075450;28;20227;-64
2021/12/27 07:37:33;;;;;;;16.35;14.68;;;;;;;7.59;68.60;94376.75;5075468;28;20601;-64
2021/12/27 07:40:00;;;;;;;18.60;16.90;;;;;;;7.60;68.38;94401.13;5075307;28;20215;-64
2021/12/27 07:42:27;;;;;;;17.83;16.23;;;;;;;7.62;68.24;94368.63;5076206;28;20708;-64
2021/12/27 07:44:54;;;;;;;24.15;21.95;;;;;;;7.61;67.98;94345.06;5075528;28;20520;-64
2021/12/27 07:47:22;;;;;;;24.75;22.45;;;;;;;7.57;68.56;94352.41;5076076;28;20268;-64
2021/12/27 07:49:49;;;;;;;18.35;16.48;;;;;;;7.60;67.99;94372.88;5076402;28;20196;-64
2021/12/27 07:52:16;;;;;;;21.08;18.80;;;;;;;7.62;68.46;94365.88;5075554;28;20220;-64
2021/12/27 07:54:43;;;;;;;18.83;16.98;;;;;;;7.65;68.34;94375.34;5075170;28;20217;-64
2021/12/27 07:57:11;;;;;;;16.88;15.38;;;;;;;7.66;68.10;94372.28;5075193;28;20193;-64
2021/12/27 07:59:38;;;;;;;16.30;14.73;;;;;;;7.68;68.04;94366.44;5075734;28;20260;-64
2021/12/27 08:02:05;;;;;;;17.83;16.10;;;;;;;7.70;68.10;94375.91;5076280;28;20220;-64
2021/12/27 08:04:33;;;;;;;17.58;15.98;;;;;;;7.68;67.80;94378.19;5076006;28;20185;-64
2021/12/27 08:07:00;;;;;;;16.25;14.65;;;;;;;7.69;67.74;94355.09;5075674;28;20201;-64
2021/12/27 08:09:27;;;;;;;17.98;16.30;;;;;;;7.69;68.08;94389.97;5074776;28;20631;-64
2021/12/27 08:11:54;;;;;;;16.27;14.70;;;;;;;7.74;68.19;94347.75;5075905;28;20195;-64
2021/12/27 08:14:21;;;;;;;19.58;17.45;;;;;;;7.68;67.94;94352.69;5074935;28;20219;-64
2021/12/27 08:16:48;;;;;;;17.98;16.08;;;;;;;7.74;68.12;94348.56;5075597;28;20185;-64
2021/12/27 08:19:15;;;;;;;17.23;15.45;;;;;;;7.75;68.06;94341.13;5075625;28;20219;-64
2021/12/27 08:21:43;;;;;;;18.35;16.48;;;;;;;7.80;68.39;94366.34;5074704;28;20208;-64
2021/12/27 08:24:10;;;;;;;23.65;21.10;;;;;;;7.87;68.34;94357.50;5075759;28;20196;-64
2021/12/27 08:26:37;;;;;;;22.75;20.50;;;;;;;7.91;67.81;94358.38;5075419;28;20232;-64
2021/12/27 08:29:07;;;;;;;24.50;20.88;;;;;;;7.97;67.90;94348.75;5074347;28;20201;-64
2021/12/27 08:31:34;;;;;;;26.00;23.25;;;;;;;8.04;68.59;94365.41;5075413;28;20195;-64
2021/12/27 08:34:00;;;;;;;33.90;30.45;;;;;;;8.09;68.05;94359.63;5075076;28;20203;-64
2021/12/27 08:36:27;;;;;;;38.15;32.75;;;;;;;8.11;67.89;94343.63;5075597;28;20197;-64
2021/12/27 08:38:55;;;;;;;27.55;23.95;;;;;;;8.11;67.96;94337.31;5074439;28;20219;-65
2021/12/27 08:41:27;;;;;;;21.08;19.02;;;;;;;8.09;67.62;94345.91;5075339;28;20200;-63
2021/12/27 08:43:55;;;;;;;23.27;20.92;;;;;;;8.11;67.77;94332.63;5075028;28;20197;-64
2021/12/27 08:46:22;;;;;;;25.95;23.25;;;;;;;8.09;67.34;94336.88;5074487;28;20184;-64
2021/12/27 08:48:48;;;;;;;24.98;22.38;;;;;;;8.13;67.29;94324.03;5075296;28;20533;-64
2021/12/27 08:51:15;;;;;;;24.50;22.08;;;;;;;8.15;67.76;94343.69;5074053;28;20189;-64
2021/12/27 08:53:42;;;;;;;21.70;19.45;;;;;;;8.22;67.54;94332.09;5074982;28;20244;-64
2021/12/27 08:56:10;;;;;;;16.58;14.45;;;;;;;8.27;67.44;94329.06;5074290;28;20193;-64
2021/12/27 08:58:38;;;;;;;15.00;13.50;;;;;;;8.32;67.30;94331.56;5074627;28;20197;-64
2021/12/27 09:01:06;;;;;;;14.00;12.60;;;;;;;8.36;67.15;94315.94;5074289;28;20197;-64
2021/12/27 09:03:33;;;;;;;13.57;12.27;;;;;;;8.39;67.28;94309.78;5075408;28;20295;-64
2021/12/27 09:05:59;;;;;;;14.18;12.88;;;;;;;8.39;67.06;94320.78;5075328;28;20195;-64
2021/12/27 09:08:26;;;;;;;13.15;11.85;;;;;;;8.43;66.93;94292.22;5074274;28;20205;-64
2021/12/27 09:10:57;;;;;;;11.50;10.50;;;;;;;8.48;66.93;94313.13;5074576;28;20287;-64
2021/12/27 09:13:26;;;;;;;11.65;10.52;;;;;;;8.55;66.88;94290.50;5074973;28;20234;-64
2021/12/27 09:15:53;;;;;;;16.10;14.73;;;;;;;8.57;66.65;94286.25;5074120;28;20204;-64
2021/12/27 09:18:20;;;;;;;17.75;16.13;;;;;;;8.62;66.56;94291.44;5075068;28;20189;-64
2021/12/27 09:20:47;;;;;;;17.80;16.20;;;;;;;8.65;66.46;94307.22;5074021;28;20205;-64
2021/12/27 09:23:14;;;;;;;21.90;19.95;;;;;;;8.68;66.42;94279.03;5074002;28;20558;-64
2021/12/27 09:25:42;;;;;;;23.42;21.35;;;;;;;8.72;66.26;94279.09;5074066;28;20231;-64
2021/12/27 09:28:09;;;;;;;23.38;21.20;;;;;;;8.73;66.25;94277.94;5075288;28;20196;-64
2021/12/27 09:30:37;;;;;;;23.83;21.63;;;;;;;8.77;66.22;94269.75;5078513;28;20181;-64
2021/12/27 09:33:05;;;;;;;21.88;19.88;;;;;;;8.81;66.00;94265.13;5078594;28;20177;-64
2021/12/27 09:35:31;;;;;;;24.55;22.45;;;;;;;8.84;65.80;94258.91;5078546;28;20216;-64
2021/12/27 09:37:58;;;;;;;23.75;21.45;;;;;;;8.90;65.41;94246.47;5078806;28;20195;-64
2021/12/27 09:40:25;;;;;;;21.60;19.60;;;;;;;8.91;66.12;94264.56;5078727;28;20582;-64
2021/12/27 09:42:53;;;;;;;16.33;14.82;;;;;;;8.93;66.05;94245.72;5077778;28;20201;-63
2021/12/27 09:45:22;;;;;;;16.45;14.98;;;;;;;9.01;65.55;94250.22;5078309;28;20238;-63
2021/12/27 09:47:51;;;;;;;14.80;13.55;;;;;;;9.10;65.06;94234.28;5078560;28;20185;-63
2021/12/27 09:50:21;;;;;;;15.20;13.70;;;;;;;9.14;65.43;94221.38;5079924;28;20185;-63
2021/12/27 09:52:48;;;;;;;15.95;14.55;;;;;;;9.15;65.72;94216.72;5078161;28;20181;-63
2021/12/27 09:55:16;;;;;;;17.30;15.60;;;;;;;9.18;64.93;94218.69;5077595;28;20220;-64
2021/12/27 09:57:43;;;;;;;20.15;18.02;;;;;;;9.24;65.19;94228.25;5078070;28;20193;-64
2021/12/27 10:00:11;;;;;;;20.52;18.42;;;;;;;9.36;65.35;94236.34;5078086;28;20189;-64
2021/12/27 10:02:40;;;;;;;17.95;16.13;;;;;;;9.46;64.60;94220.41;5077155;28;20648;-64
2021/12/27 10:05:09;;;;;;;15.63;14.13;;;;;;;9.49;64.29;94219.66;5078193;28;20196;-64
2021/12/27 10:07:41;;;;;;;16.65;14.85;;;;;;;9.50;64.92;94229.50;5078575;28;20181;-64
2021/12/27 10:10:10;;;;;;;17.20;15.55;;;;;;;9.54;64.65;94219.34;5077931;28;20189;-64
2021/12/27 10:12:37;;;;;;;18.90;16.88;;;;;;;9.60;64.63;94229.69;5078227;28;20200;-64
2021/12/27 10:15:06;;;;;;;18.90;16.98;;;;;;;9.65;65.13;94225.84;5077902;28;20205;-64
2021/12/27 10:17:36;;;;;;;21.90;19.75;;;;;;;9.59;64.77;94232.81;5078033;28;20193;-64
2021/12/27 10:20:12;;;;;;;20.67;18.58;;;;;;;9.57;64.40;94232.38;5078022;28;20190;-64
2021/12/27 10:22:40;;;;;;;18.85;17.15;;;;;;;9.57;64.17;94218.63;5077605;28;20606;-64
2021/12/27 10:25:09;;;;;;;17.77;15.93;;;;;;;9.57;65.00;94227.66;5077967;28;20228;-64
2021/12/27 10:27:37;;;;;;;16.77;14.93;;;;;;;9.57;65.01;94205.66;5077213;28;20212;-64
2021/12/27 10:30:10;;;;;;;14.88;13.30;;;;;;;9.54;64.45;94211.88;5077786;28;20189;-64
2021/12/27 10:32:37;;;;;;;17.85;14.98;;;;;;;9.55;64.54;94232.75;5077779;28;20186;-64
2021/12/27 10:35:06;;;;;;;15.07;13.65;;;;;;;9.58;64.45;94217.44;5077758;28;20209;-64
2021/12/27 10:37:36;;;;;;;13.23;11.93;;;;;;;9.60;64.54;94198.63;5077700;28;20200;-64
2021/12/27 10:40:06;;;;;;;11.27;10.27;;;;;;;9.56;63.90;94184.78;5076126;28;20197;-64
2021/12/27 10:42:35;;;;;;;10.13;8.10;;;;;;;9.63;63.40;94200.66;5077172;28;20221;-64
2021/12/27 10:45:04;;;;;;;11.07;10.10;;;;;;;9.76;63.44;94192.97;5077590;28;20568;-64
2021/12/27 10:47:42;;;;;;;9.50;8.70;;;;;;;9.92;62.88;94192.84;5077482;28;20204;-64
2021/12/27 10:50:16;;;;;;;9.02;8.13;;;;;;;10.06;63.02;94176.53;5077169;28;20503;-64
2021/12/27 10:52:59;;;;;;;10.73;7.53;;;;;;;10.23;62.37;94170.47;5077502;28;20203;-64
2021/12/27 10:55:31;;;;;;;8.75;7.80;;;;;;;10.47;61.46;94180.28;5076353;28;20223;-64
2021/12/27 10:58:22;;;;;;;7.20;6.50;;;;;;;10.61;61.16;94193.47;5076052;28;20190;-64
2021/12/27 11:00:51;;;;;;;9.43;7.30;;;;;;;10.74;61.02;94185.72;5077255;28;20185;-64
2021/12/27 11:03:25;;;;;;;6.68;6.07;;;;;;;10.90;59.01;94213.13;5077098;28;20181;-64
2021/12/27 11:05:52;;;;;;;3.47;2.60;;;;;;;11.14;57.80;94179.50;5077212;28;20173;-64
2021/12/27 11:08:21;;;;;;;3.55;3.15;;;;;;;11.31;56.75;94173.38;5077024;28;20194;-64
2021/12/27 11:10:48;;;;;;;2.83;1.60;;;;;;;11.39;56.13;94168.69;5077092;28;20276;-64
2021/12/27 11:13:14;;;;;;;2.15;2.00;;;;;;;11.46;55.90;94177.06;5076842;28;20193;-64
2021/12/27 11:15:42;;;;;;;3.83;2.80;;;;;;;11.52;55.62;94183.03;5075654;28;20620;-64
2021/12/27 11:18:12;;;;;;;4.00;2.70;;;;;;;11.52;55.92;94181.06;5076931;28;20258;-64
2021/12/27 11:20:43;;;;;;;4.50;2.70;;;;;;;11.53;56.11;94176.34;5076059;28;20212;-64
2021/12/27 11:23:11;;;;;;;3.22;2.47;;;;;;;11.51;56.12;94162.91;5075787;28;20216;-64
2021/12/27 11:25:41;;;;;;;2.45;1.95;;;;;;;11.52;56.22;94163.72;5076860;28;20244;-64
2021/12/27 11:28:26;;;;;;;2.40;1.35;;;;;;;11.54;56.22;94150.28;5076609;28;20546;-64
2021/12/27 11:30:53;;;;;;;2.88;2.10;;;;;;;11.52;56.26;94155.44;5077072;28;20195;-64
2021/12/27 11:33:22;;;;;;;4.50;3.92;;;;;;;11.49;56.31;94151.44;5075288;28;20817;-64